sensor_id;sensor_type;location;lat;lon;timestamp;pressure;altitude;pressure_sealevel;temperature
63297;BMP280;49419;51.716;-4.948;2023-06-10T00:02:53;100789.63;;;21.90
63297;BMP280;49419;51.716;-4.948;2023-06-10T00:14:44;100784.44;;;21.81
63297;BMP280;49419;51.716;-4.948;2023-06-10T00:30:43;100760.16;;;21.67
63297;BMP280;49419;51.716;-4.948;2023-06-10T00:37:44;100768.84;;;21.72
63297;BMP280;49419;51.716;-4.948;2023-06-10T00:40:39;100752.34;;;21.67
63297;BMP280;49419;51.716;-4.948;2023-06-10T00:43:32;100751.50;;;21.63
63297;BMP280;49419;51.716;-4.948;2023-06-10T00:46:42;100741.03;;;21.66
63297;BMP280;49419;51.716;-4.948;2023-06-10T00:55:09;100741.06;;;21.59
63297;BMP280;49419;51.716;-4.948;2023-06-10T01:00:21;100745.41;;;21.60
63297;BMP280;49419;51.716;-4.948;2023-06-10T01:03:16;100743.66;;;21.62
63297;BMP280;49419;51.716;-4.948;2023-06-10T01:38:59;100745.53;;;21.33
63297;BMP280;49419;51.716;-4.948;2023-06-10T01:44:08;100751.66;;;21.28
63297;BMP280;49419;51.716;-4.948;2023-06-10T01:46:48;100757.78;;;21.27
63297;BMP280;49419;51.716;-4.948;2023-06-10T01:49:29;100748.22;;;21.23
63297;BMP280;49419;51.716;-4.948;2023-06-10T01:52:13;100735.16;;;21.22
63297;BMP280;49419;51.716;-4.948;2023-06-10T01:54:43;100740.38;;;21.22
63297;BMP280;49419;51.716;-4.948;2023-06-10T01:57:43;100741.25;;;21.25
63297;BMP280;49419;51.716;-4.948;2023-06-10T02:19:50;100740.47;;;21.07
63297;BMP280;49419;51.716;-4.948;2023-06-10T02:40:44;100733.53;;;21.03
63297;BMP280;49419;51.716;-4.948;2023-06-10T02:43:36;100715.28;;;21.00
63297;BMP280;49419;51.716;-4.948;2023-06-10T02:46:43;100726.56;;;21.03
63297;BMP280;49419;51.716;-4.948;2023-06-10T02:49:29;100727.47;;;20.96
63297;BMP280;49419;51.716;-4.948;2023-06-10T03:02:02;100738.78;;;20.94
63297;BMP280;49419;51.716;-4.948;2023-06-10T03:05:10;100731.84;;;20.90
63297;BMP280;49419;51.716;-4.948;2023-06-10T03:07:53;100721.44;;;20.84
63297;BMP280;49419;51.716;-4.948;2023-06-10T03:10:28;100723.19;;;20.82
63297;BMP280;49419;51.716;-4.948;2023-06-10T03:29:27;100726.66;;;20.74
63297;BMP280;49419;51.716;-4.948;2023-06-10T03:32:09;100744.94;;;20.71
63297;BMP280;49419;51.716;-4.948;2023-06-10T03:34:44;100738.88;;;20.64
63297;BMP280;49419;51.716;-4.948;2023-06-10T03:37:14;100750.16;;;20.66
63297;BMP280;49419;51.716;-4.948;2023-06-10T03:39:48;100750.16;;;20.72
63297;BMP280;49419;51.716;-4.948;2023-06-10T03:42:29;100741.50;;;20.67
63297;BMP280;49419;51.716;-4.948;2023-06-10T03:53:07;100744.09;;;20.64
63297;BMP280;49419;51.716;-4.948;2023-06-10T04:59:02;100768.44;;;20.37
63297;BMP280;49419;51.716;-4.948;2023-06-10T05:02:09;100763.22;;;20.31
63297;BMP280;49419;51.716;-4.948;2023-06-10T05:08:26;100752.81;;;20.34
63297;BMP280;49419;51.716;-4.948;2023-06-10T05:11:33;100746.72;;;20.26
63297;BMP280;49419;51.716;-4.948;2023-06-10T05:14:26;100723.31;;;20.22
63297;BMP280;49419;51.716;-4.948;2023-06-10T05:17:38;100749.38;;;20.17
63297;BMP280;49419;51.716;-4.948;2023-06-10T05:24:38;100739.81;;;20.04
63297;BMP280;49419;51.716;-4.948;2023-06-10T05:35:52;100751.97;;;19.89
63297;BMP280;49419;51.716;-4.948;2023-06-10T05:39:19;100770.19;;;19.80
63297;BMP280;49419;51.716;-4.948;2023-06-10T07:02:29;100806.44;;;19.23
63297;BMP280;49419;51.716;-4.948;2023-06-10T07:05:42;100820.31;;;19.25
63297;BMP280;49419;51.716;-4.948;2023-06-10T07:08:24;100810.78;;;19.27
63297;BMP280;49419;51.716;-4.948;2023-06-10T07:11:16;100808.19;;;19.27
63297;BMP280;49419;51.716;-4.948;2023-06-10T07:14:09;100816.00;;;19.27
63297;BMP280;49419;51.716;-4.948;2023-06-10T07:16:41;100813.41;;;19.33
63297;BMP280;49419;51.716;-4.948;2023-06-10T07:19:25;100816.88;;;19.37
63297;BMP280;49419;51.716;-4.948;2023-06-10T08:11:47;100855.97;;;19.40
63297;BMP280;49419;51.716;-4.948;2023-06-10T08:14:51;100875.94;;;19.43
63297;BMP280;49419;51.716;-4.948;2023-06-10T08:17:24;100860.28;;;19.44
63297;BMP280;49419;51.716;-4.948;2023-06-10T09:16:05;100882.25;;;20.81
63297;BMP280;49419;51.716;-4.948;2023-06-10T18:16:15;100918.66;;;22.97
63297;BMP280;49419;51.716;-4.948;2023-06-10T18:19:20;100925.53;;;23.07
63297;BMP280;49419;51.716;-4.948;2023-06-10T18:22:16;100926.31;;;23.16
63297;BMP280;49419;51.716;-4.948;2023-06-10T18:25:02;100932.41;;;23.17
63297;BMP280;49419;51.716;-4.948;2023-06-10T18:27:56;100933.38;;;23.07
63297;BMP280;49419;51.716;-4.948;2023-06-10T18:30:47;100946.59;;;22.93
63297;BMP280;49419;51.716;-4.948;2023-06-10T18:33:19;100951.91;;;22.79
63297;BMP280;49419;51.716;-4.948;2023-06-10T18:35:58;100953.81;;;22.58
63297;BMP280;49419;51.716;-4.948;2023-06-10T18:38:30;100953.94;;;22.44
63297;BMP280;49419;51.716;-4.948;2023-06-10T18:41:01;100963.56;;;22.39
63297;BMP280;49419;51.716;-4.948;2023-06-10T18:43:26;100973.19;;;22.27
63297;BMP280;49419;51.716;-4.948;2023-06-10T18:46:02;100974.16;;;22.16
63297;BMP280;49419;51.716;-4.948;2023-06-10T18:48:46;100975.03;;;22.16
63297;BMP280;49419;51.716;-4.948;2023-06-10T18:51:16;100980.25;;;22.15
63297;BMP280;49419;51.716;-4.948;2023-06-10T18:53:45;100975.03;;;22.09
63297;BMP280;49419;51.716;-4.948;2023-06-10T18:56:11;100972.44;;;22.06
63297;BMP280;49419;51.716;-4.948;2023-06-10T18:58:45;100984.59;;;22.05
63297;BMP280;49419;51.716;-4.948;2023-06-10T19:01:25;100989.00;;;22.02
63297;BMP280;49419;51.716;-4.948;2023-06-10T19:04:40;100979.44;;;21.95
63297;BMP280;49419;51.716;-4.948;2023-06-10T19:07:38;100980.34;;;21.85
63297;BMP280;49419;51.716;-4.948;2023-06-10T19:10:53;100983.84;;;21.77
63297;BMP280;49419;51.716;-4.948;2023-06-10T19:13:29;100984.75;;;21.71
63297;BMP280;49419;51.716;-4.948;2023-06-10T19:16:18;100989.97;;;21.73
63297;BMP280;49419;51.716;-4.948;2023-06-10T19:19:08;100991.72;;;21.66
63297;BMP280;49419;51.716;-4.948;2023-06-10T19:21:46;100980.47;;;21.54
63297;BMP280;49419;51.716;-4.948;2023-06-10T19:27:45;100997.00;;;21.50
63297;BMP280;49419;51.716;-4.948;2023-06-10T19:33:35;100987.44;;;21.46
63297;BMP280;49419;51.716;-4.948;2023-06-10T19:36:23;100997.88;;;21.48
63297;BMP280;49419;51.716;-4.948;2023-06-10T19:38:54;100997.00;;;21.47
63297;BMP280;49419;51.716;-4.948;2023-06-10T19:41:23;101003.13;;;21.40
63297;BMP280;49419;51.716;-4.948;2023-06-10T19:43:51;101000.50;;;21.37
63297;BMP280;49419;51.716;-4.948;2023-06-10T19:46:23;101009.22;;;21.39
63297;BMP280;49419;51.716;-4.948;2023-06-10T19:49:12;101000.50;;;21.30
63297;BMP280;49419;51.716;-4.948;2023-06-10T19:51:42;101000.47;;;21.33
63297;BMP280;49419;51.716;-4.948;2023-06-10T19:54:30;101006.56;;;21.30
63297;BMP280;49419;51.716;-4.948;2023-06-10T20:45:19;101037.91;;;21.10
63297;BMP280;49419;51.716;-4.948;2023-06-10T20:48:22;101037.06;;;21.11
63297;BMP280;49419;51.716;-4.948;2023-06-10T21:52:13;101079.63;;;20.88
63297;BMP280;49419;51.716;-4.948;2023-06-10T21:55:24;101081.38;;;20.87
63297;BMP280;49419;51.716;-4.948;2023-06-10T21:58:48;101085.72;;;20.90
